Time;durP1;ratioP1;P1;durP2;ratioP2;P2;SDS_P1;SDS_P2;PMS_P1;PMS_P2;Temp;Humidity;BMP_temperature;BMP_pressure;BME280_temperature;BME280_humidity;BME280_pressure;Samples;Min_cycle;Max_cycle;Signal;HPM_P1;HPM_P2
2023/12/22 00:01:29;;;;;;;3.30;0.82;;;5.10;99.90;;;;;;5008169;28;20125;-67
2023/12/22 00:03:56;;;;;;;6.05;1.58;;;5.20;99.90;;;;;;5008439;28;20041;-66
2023/12/22 00:06:22;;;;;;;6.68;1.35;;;5.10;99.90;;;;;;5008525;28;20062;-67
2023/12/22 00:08:47;;;;;;;11.85;1.65;;;5.10;99.90;;;;;;5008100;28;20073;-67
2023/12/22 00:11:13;;;;;;;4.55;0.77;;;5.20;99.90;;;;;;5005082;28;20048;-67
2023/12/22 00:13:39;;;;;;;5.65;1.27;;;5.20;99.90;;;;;;5002695;28;20092;-66
2023/12/22 00:16:05;;;;;;;6.20;1.10;;;5.20;99.90;;;;;;5008194;28;20084;-67
2023/12/22 00:18:31;;;;;;;4.30;0.98;;;5.20;99.90;;;;;;5008233;28;20561;-67
2023/12/22 00:20:57;;;;;;;6.15;1.02;;;5.20;99.90;;;;;;5007710;28;20044;-66
2023/12/22 00:23:23;;;;;;;1.58;0.45;;;5.20;99.90;;;;;;5007547;28;20029;-67
2023/12/22 00:25:48;;;;;;;5.40;0.70;;;5.30;99.90;;;;;;5008097;28;20552;-67
2023/12/22 00:28:14;;;;;;;4.80;1.10;;;5.20;99.90;;;;;;5008439;28;20128;-67
2023/12/22 00:30:40;;;;;;;3.15;0.85;;;5.20;99.90;;;;;;5007709;28;20095;-67
2023/12/22 00:33:06;;;;;;;3.70;0.60;;;5.30;99.90;;;;;;5007583;28;20041;-67
2023/12/22 00:35:31;;;;;;;1.20;0.68;;;5.20;99.90;;;;;;5006372;28;20038;-67
2023/12/22 00:37:57;;;;;;;3.28;0.95;;;5.20;99.90;;;;;;5007690;28;20042;-67
2023/12/22 00:40:23;;;;;;;7.18;1.00;;;5.20;99.90;;;;;;5007544;28;20060;-67
2023/12/22 00:42:49;;;;;;;7.15;0.85;;;5.30;99.90;;;;;;5007653;28;20065;-66
2023/12/22 00:45:14;;;;;;;4.00;1.13;;;5.20;99.90;;;;;;5007887;28;20439;-66
2023/12/22 00:47:40;;;;;;;9.35;1.25;;;5.10;99.90;;;;;;5007052;28;20038;-67
2023/12/22 00:50:07;;;;;;;4.25;1.25;;;5.00;99.90;;;;;;5007494;28;20100;-67
2023/12/22 00:52:33;;;;;;;5.15;1.10;;;5.00;99.90;;;;;;5006857;28;20022;-67
2023/12/22 00:54:59;;;;;;;6.00;0.90;;;5.00;99.90;;;;;;5007814;28;20087;-67
2023/12/22 00:57:25;;;;;;;4.63;1.08;;;4.90;99.90;;;;;;5007414;28;20726;-67
2023/12/22 00:59:51;;;;;;;3.50;0.98;;;5.00;99.90;;;;;;5007448;28;20051;-67
2023/12/22 01:02:18;;;;;;;7.43;1.00;;;5.00;99.90;;;;;;5007036;28;20041;-66
2023/12/22 01:04:44;;;;;;;7.85;1.40;;;5.00;99.90;;;;;;5007372;28;20038;-66
2023/12/22 01:07:11;;;;;;;5.00;1.08;;;4.90;99.90;;;;;;5007241;28;20046;-67
2023/12/22 01:09:39;;;;;;;6.97;1.33;;;4.80;99.90;;;;;;5007276;28;20033;-66
2023/12/22 01:12:06;;;;;;;7.95;1.85;;;4.90;99.90;;;;;;5006823;28;20109;-67
2023/12/22 01:14:32;;;;;;;7.78;1.38;;;4.90;99.90;;;;;;5005645;28;20514;-66
2023/12/22 01:17:01;;;;;;;4.25;1.00;;;4.90;99.90;;;;;;5006776;28;20053;-67
2023/12/22 01:19:27;;;;;;;2.95;1.02;;;5.00;99.90;;;;;;5006915;28;20041;-67
2023/12/22 01:21:53;;;;;;;9.23;1.17;;;5.00;99.90;;;;;;5006424;28;20034;-67
2023/12/22 01:24:19;;;;;;;4.68;1.40;;;4.90;99.90;;;;;;5007068;28;20113;-67
2023/12/22 01:26:44;;;;;;;3.92;1.58;;;5.00;99.90;;;;;;5007157;28;20468;-66
2023/12/22 01:29:10;;;;;;;14.77;1.77;;;5.00;99.90;;;;;;5006688;28;20084;-67
2023/12/22 01:31:36;;;;;;;7.15;1.33;;;5.00;99.90;;;;;;5006689;28;20117;-66
2023/12/22 01:34:02;;;;;;;9.13;1.20;;;5.10;99.90;;;;;;5006772;28;20030;-67
2023/12/22 01:36:28;;;;;;;9.23;1.50;;;5.20;99.90;;;;;;5006598;28;20136;-67
2023/12/22 01:38:53;;;;;;;7.25;1.40;;;5.20;99.90;;;;;;5007168;28;20101;-66
2023/12/22 01:41:19;;;;;;;10.73;1.65;;;5.20;99.90;;;;;;5006405;28;20535;-67
2023/12/22 01:43:45;;;;;;;12.18;1.55;;;5.30;99.90;;;;;;5006908;28;20034;-67
2023/12/22 01:46:14;;;;;;;6.63;1.40;;;5.40;99.90;;;;;;5006812;28;20621;-67
2023/12/22 01:48:40;;;;;;;9.38;1.35;;;5.30;99.90;;;;;;5006741;28;20030;-66
2023/12/22 01:51:07;;;;;;;9.48;1.73;;;5.30;99.90;;;;;;5004886;28;20602;-66
2023/12/22 01:53:33;;;;;;;4.95;1.25;;;5.30;99.90;;;;;;5006467;28;20029;-67
2023/12/22 01:56:01;;;;;;;9.77;1.00;;;5.40;99.90;;;;;;5006389;28;20033;-66
2023/12/22 01:58:31;;;;;;;7.43;1.33;;;5.40;99.90;;;;;;5005398;28;20034;-67
2023/12/22 02:01:04;;;;;;;7.90;1.38;;;5.30;99.90;;;;;;5004387;28;20499;-66
2023/12/22 02:03:31;;;;;;;3.70;1.13;;;5.20;99.90;;;;;;5003202;28;20037;-67
2023/12/22 02:05:56;;;;;;;7.35;1.52;;;5.30;99.90;;;;;;5006123;28;20038;-67
2023/12/22 02:08:24;;;;;;;8.75;1.30;;;5.30;99.90;;;;;;5006407;28;20128;-67
2023/12/22 02:10:49;;;;;;;5.95;1.15;;;5.30;99.90;;;;;;5005662;28;20621;-67
2023/12/22 02:13:15;;;;;;;10.75;2.20;;;5.40;99.90;;;;;;5005993;28;20120;-66
2023/12/22 02:15:41;;;;;;;2.53;0.85;;;5.40;99.90;;;;;;5005700;28;20087;-67
2023/12/22 02:18:21;;;;;;;7.10;1.25;;;5.50;99.90;;;;;;5005965;28;20108;-67
2023/12/22 02:20:49;;;;;;;7.00;1.50;;;5.50;99.90;;;;;;5005960;28;20038;-67
2023/12/22 02:23:14;;;;;;;5.03;1.00;;;5.40;99.90;;;;;;5005838;28;20406;-66
2023/12/22 02:25:40;;;;;;;5.28;1.13;;;5.40;99.90;;;;;;5005510;28;20093;-67
2023/12/22 02:28:09;;;;;;;4.70;1.10;;;5.30;99.90;;;;;;5004690;28;20073;-67
2023/12/22 02:31:03;;;;;;;8.35;1.13;;;5.30;99.90;;;;;;5005620;28;20511;-67
2023/12/22 02:33:32;;;;;;;4.00;1.00;;;5.30;99.90;;;;;;5005814;28;20080;-67
2023/12/22 02:36:04;;;;;;;6.00;1.00;;;5.40;99.90;;;;;;5005954;28;20034;-67
2023/12/22 02:38:31;;;;;;;6.15;1.08;;;5.40;99.90;;;;;;5005781;28;20038;-66
2023/12/22 02:40:57;;;;;;;4.07;0.70;;;5.40;99.90;;;;;;5005428;28;20065;-67
2023/12/22 02:43:23;;;;;;;8.35;1.33;;;5.50;99.90;;;;;;5005440;28;20149;-67
2023/12/22 02:45:52;;;;;;;3.40;0.75;;;5.40;99.90;;;;;;5005704;28;20596;-67
2023/12/22 02:48:18;;;;;;;3.25;1.10;;;5.40;99.90;;;;;;5005608;28;20034;-67
2023/12/22 02:50:44;;;;;;;7.50;0.82;;;5.30;99.90;;;;;;5005379;28;20044;-67
2023/12/22 02:53:09;;;;;;;3.28;0.90;;;5.30;99.90;;;;;;5004143;28;20113;-66
2023/12/22 02:55:35;;;;;;;3.78;0.70;;;5.40;99.90;;;;;;5005692;28;20065;-66
2023/12/22 02:58:01;;;;;;;2.15;0.43;;;5.40;99.90;;;;;;5004240;28;20033;-66
2023/12/22 03:00:27;;;;;;;4.57;0.70;;;5.30;99.90;;;;;;5005582;28;20494;-66
2023/12/22 03:02:52;;;;;;;5.65;0.70;;;5.30;99.90;;;;;;5005537;28;20037;-66
2023/12/22 03:05:18;;;;;;;2.80;1.00;;;5.30;99.90;;;;;;5005734;28;20034;-66
2023/12/22 03:07:44;;;;;;;5.90;0.82;;;5.40;99.90;;;;;;5005508;28;20128;-67
2023/12/22 03:10:10;;;;;;;5.97;1.30;;;5.50;99.90;;;;;;5007254;28;20076;-66
2023/12/22 03:12:36;;;;;;;3.63;0.73;;;5.50;99.90;;;;;;5009023;28;20034;-66
2023/12/22 03:15:02;;;;;;;4.10;1.00;;;5.50;99.90;;;;;;5009337;28;20041;-66
2023/12/22 03:17:28;;;;;;;7.38;0.80;;;5.50;99.90;;;;;;5009539;28;20030;-67
2023/12/22 03:19:54;;;;;;;4.80;1.42;;;5.40;99.90;;;;;;5009506;28;20438;-66
2023/12/22 03:22:19;;;;;;;6.45;2.42;;;5.40;99.90;;;;;;5009143;28;20036;-66
2023/12/22 03:24:45;;;;;;;9.52;1.20;;;5.40;99.90;;;;;;5009106;28;20030;-66
2023/12/22 03:27:16;;;;;;;4.82;1.15;;;5.40;99.90;;;;;;5009468;28;20033;-66
2023/12/22 03:29:42;;;;;;;5.93;0.63;;;5.40;99.90;;;;;;5007486;28;20040;-66
2023/12/22 03:32:08;;;;;;;3.95;0.82;;;5.30;99.90;;;;;;5008366;28;20040;-66
2023/12/22 03:34:34;;;;;;;4.88;0.77;;;5.30;99.90;;;;;;5009264;28;20029;-66
2023/12/22 03:37:00;;;;;;;3.47;0.80;;;5.30;99.90;;;;;;5008630;28;20477;-66
2023/12/22 03:39:25;;;;;;;3.25;0.80;;;5.40;99.90;;;;;;5008727;28;20026;-66
2023/12/22 03:41:51;;;;;;;3.67;0.63;;;5.40;99.90;;;;;;5007028;28;20088;-66
2023/12/22 03:44:17;;;;;;;3.75;0.55;;;5.50;99.90;;;;;;5009073;28;20660;-66
2023/12/22 03:46:43;;;;;;;2.75;0.50;;;5.40;99.90;;;;;;5008934;28;20041;-66
2023/12/22 03:49:08;;;;;;;2.30;0.55;;;5.40;99.90;;;;;;5008692;28;20030;-66
2023/12/22 03:51:34;;;;;;;2.28;0.75;;;5.40;99.90;;;;;;5008459;28;20030;-66
2023/12/22 03:54:00;;;;;;;3.50;0.47;;;5.30;99.90;;;;;;5008590;28;20689;-66
2023/12/22 03:56:26;;;;;;;1.25;0.68;;;5.50;99.90;;;;;;5009194;28;20040;-66
2023/12/22 03:58:52;;;;;;;3.13;0.60;;;5.60;99.90;;;;;;5008624;28;20038;-66
2023/12/22 04:01:17;;;;;;;3.35;0.77;;;5.60;99.90;;;;;;5008488;28;20030;-66
2023/12/22 04:03:43;;;;;;;1.15;0.40;;;5.60;99.90;;;;;;5008613;28;20030;-67
2023/12/22 04:06:09;;;;;;;4.95;0.88;;;5.70;99.90;;;;;;5002102;28;20076;-66
2023/12/22 04:08:35;;;;;;;1.00;0.32;;;5.80;99.90;;;;;;5001754;28;20474;-66
2023/12/22 04:11:02;;;;;;;1.75;0.52;;;5.70;99.90;;;;;;5007790;28;20065;-66
2023/12/22 04:13:28;;;;;;;5.80;0.75;;;5.70;99.90;;;;;;5008196;28;20029;-66
2023/12/22 04:15:53;;;;;;;3.78;0.93;;;5.60;99.90;;;;;;5008082;28;20107;-66
2023/12/22 04:18:19;;;;;;;2.90;0.60;;;5.70;99.90;;;;;;5008382;28;20084;-66
2023/12/22 04:20:46;;;;;;;6.53;0.88;;;5.70;99.90;;;;;;5007273;28;20411;-66
2023/12/22 04:23:12;;;;;;;3.50;0.70;;;5.70;99.90;;;;;;5007941;28;20037;-66
2023/12/22 04:25:38;;;;;;;2.38;0.47;;;5.80;99.90;;;;;;5008083;28;20520;-66
2023/12/22 04:28:04;;;;;;;3.75;0.90;;;5.70;99.90;;;;;;5008279;28;20026;-66
2023/12/22 04:30:30;;;;;;;4.65;0.57;;;5.70;99.90;;;;;;5007857;28;20742;-66
2023/12/22 04:32:56;;;;;;;5.93;2.15;;;5.70;99.90;;;;;;5007763;28;20030;-66
2023/12/22 04:35:21;;;;;;;2.28;0.70;;;5.80;99.90;;;;;;5008046;28;20033;-66
2023/12/22 04:37:47;;;;;;;2.83;0.85;;;5.60;99.90;;;;;;5008014;28;20026;-66
2023/12/22 04:40:13;;;;;;;3.35;1.08;;;5.60;99.90;;;;;;5008073;28;20457;-66
2023/12/22 04:42:39;;;;;;;3.78;0.55;;;5.50;99.90;;;;;;5007520;28;20498;-66
2023/12/22 04:45:04;;;;;;;3.55;0.40;;;5.40;99.90;;;;;;5007977;28;20042;-66
2023/12/22 04:47:30;;;;;;;2.03;0.30;;;5.30;99.90;;;;;;5007057;28;20022;-66
2023/12/22 04:49:56;;;;;;;1.42;0.50;;;5.10;99.90;;;;;;5007838;28;20096;-66
2023/12/22 04:52:22;;;;;;;1.38;0.30;;;5.00;99.90;;;;;;5007476;28;20043;-66
2023/12/22 04:54:48;;;;;;;1.67;0.17;;;4.80;99.90;;;;;;5007408;28;20136;-66
2023/12/22 04:57:13;;;;;;;2.40;0.50;;;4.50;99.90;;;;;;5007281;28;20026;-66
2023/12/22 04:59:39;;;;;;;1.52;0.45;;;4.30;99.90;;;;;;5007537;28;20042;-66
2023/12/22 05:02:05;;;;;;;0.30;0.30;;;4.30;99.90;;;;;;5007009;28;20053;-66
2023/12/22 05:04:32;;;;;;;2.05;0.20;;;4.30;99.90;;;;;;5007489;28;20544;-66
2023/12/22 05:06:58;;;;;;;3.00;0.40;;;4.30;99.90;;;;;;5007236;28;20558;-66
2023/12/22 05:09:25;;;;;;;2.05;0.50;;;4.30;99.90;;;;;;5007465;28;20029;-66
2023/12/22 05:11:51;;;;;;;4.15;0.57;;;4.40;99.90;;;;;;5006761;28;20066;-66
2023/12/22 05:14:16;;;;;;;3.10;0.57;;;4.50;99.90;;;;;;5007229;28;20030;-66
2023/12/22 05:16:42;;;;;;;9.00;0.52;;;4.60;99.90;;;;;;5007070;28;20044;-66
2023/12/22 05:19:08;;;;;;;4.40;0.80;;;4.60;99.90;;;;;;5007100;28;20030;-66
2023/12/22 05:21:34;;;;;;;4.18;1.00;;;4.70;99.90;;;;;;5006788;28;20029;-66
2023/12/22 05:24:00;;;;;;;9.23;1.05;;;4.70;99.90;;;;;;5006997;28;20164;-66
2023/12/22 05:26:29;;;;;;;2.30;1.10;;;4.80;99.90;;;;;;5007053;28;20674;-66
2023/12/22 05:28:56;;;;;;;2.70;0.50;;;4.80;99.90;;;;;;5007218;28;20426;-66
2023/12/22 05:31:22;;;;;;;7.53;0.82;;;4.80;99.90;;;;;;5006643;28;20033;-66
2023/12/22 05:33:47;;;;;;;7.45;0.80;;;4.80;99.90;;;;;;5006402;28;20045;-66
2023/12/22 05:36:13;;;;;;;1.85;0.70;;;4.70;99.90;;;;;;5006848;28;20038;-66
2023/12/22 05:38:39;;;;;;;1.27;0.35;;;4.70;99.90;;;;;;5006736;28;20034;-66
2023/12/22 05:41:08;;;;;;;1.55;0.47;;;4.60;99.90;;;;;;5006030;28;20096;-66
2023/12/22 05:43:34;;;;;;;4.88;0.45;;;4.60;99.90;;;;;;5006809;28;20041;-66
2023/12/22 05:46:00;;;;;;;4.88;0.43;;;4.50;99.90;;;;;;5006885;28;20107;-66
2023/12/22 05:48:27;;;;;;;1.85;0.80;;;4.50;99.90;;;;;;5006955;28;20038;-66
2023/12/22 05:50:56;;;;;;;1.75;0.40;;;4.50;99.90;;;;;;5006582;28;20129;-66
2023/12/22 05:53:21;;;;;;;6.32;0.63;;;4.50;99.90;;;;;;5006472;28;20049;-66
2023/12/22 05:55:47;;;;;;;0.20;0.20;;;4.40;99.90;;;;;;5006351;28;20037;-66
2023/12/22 05:58:13;;;;;;;0.55;0.40;;;4.40;99.90;;;;;;5006549;28;20041;-66
2023/12/22 06:00:38;;;;;;;2.42;0.17;;;4.40;99.90;;;;;;5002325;28;20030;-66
2023/12/22 06:03:05;;;;;;;0.22;0.08;;;4.30;99.90;;;;;;5006093;28;20095;-66
2023/12/22 06:05:31;;;;;;;0.22;0.20;;;4.30;99.90;;;;;;5006103;28;20069;-66
2023/12/22 06:07:57;;;;;;;2.45;0.40;;;4.30;99.90;;;;;;5006477;28;20081;-66
2023/12/22 06:10:22;;;;;;;0.28;0.10;;;4.20;99.90;;;;;;5004778;28;20052;-66
2023/12/22 06:12:48;;;;;;;0.00;0.00;;;4.20;99.90;;;;;;5006282;28;20037;-66
2023/12/22 06:15:14;;;;;;;4.47;0.20;;;4.20;99.90;;;;;;5006401;28;20034;-67
2023/12/22 06:17:40;;;;;;;0.68;0.50;;;4.20;99.90;;;;;;5006485;28;20061;-66
2023/12/22 06:20:06;;;;;;;6.43;3.05;;;4.30;99.90;;;;;;5006029;28;20044;-66
2023/12/22 06:22:32;;;;;;;0.57;0.57;;;4.30;99.90;;;;;;5005182;28;20449;-66
2023/12/22 06:24:58;;;;;;;7.90;6.50;;;4.30;99.90;;;;;;5006051;28;20037;-66
2023/12/22 06:27:25;;;;;;;1.80;1.45;;;4.30;99.90;;;;;;5006174;28;20092;-66
2023/12/22 06:29:50;;;;;;;5.35;3.78;;;4.30;99.90;;;;;;5006170;28;20038;-66
2023/12/22 06:32:17;;;;;;;1.33;0.77;;;4.30;99.90;;;;;;5005827;28;20037;-66
2023/12/22 06:34:43;;;;;;;0.40;0.40;;;4.30;99.90;;;;;;5005996;28;20041;-66
2023/12/22 06:37:10;;;;;;;1.58;0.80;;;4.50;99.90;;;;;;5005860;28;20036;-66
2023/12/22 06:39:36;;;;;;;1.50;0.43;;;4.50;99.90;;;;;;5005567;28;20045;-66
2023/12/22 06:42:03;;;;;;;1.80;0.60;;;4.40;99.90;;;;;;5005398;28;20435;-66
2023/12/22 06:44:31;;;;;;;2.13;0.70;;;4.50;99.90;;;;;;5005279;28;20046;-66
2023/12/22 06:46:57;;;;;;;5.32;1.15;;;4.50;99.90;;;;;;5005943;28;20045;-66
2023/12/22 06:49:22;;;;;;;4.70;1.15;;;4.40;99.90;;;;;;5005543;28;20380;-66
2023/12/22 06:51:48;;;;;;;2.63;0.80;;;4.20;99.90;;;;;;5005400;28;20034;-66
2023/12/22 06:54:14;;;;;;;8.52;1.60;;;4.20;99.90;;;;;;5006311;28;20033;-66
2023/12/22 06:56:40;;;;;;;1.13;0.40;;;4.20;99.90;;;;;;5005827;28;20041;-66
2023/12/22 06:59:06;;;;;;;2.05;0.82;;;4.20;99.90;;;;;;5005864;28;20026;-66
2023/12/22 07:01:34;;;;;;;1.13;0.50;;;4.20;99.90;;;;;;5005168;28;20026;-66
2023/12/22 07:04:01;;;;;;;5.88;0.90;;;4.30;99.90;;;;;;5005429;28;20592;-66
2023/12/22 07:06:29;;;;;;;5.57;0.68;;;4.40;99.90;;;;;;5005633;28;20046;-66
2023/12/22 07:09:14;;;;;;;3.13;0.77;;;4.50;99.90;;;;;;5005517;28;20030;-66
2023/12/22 07:11:51;;;;;;;5.47;0.75;;;4.60;99.90;;;;;;5005511;28;20034;-66
2023/12/22 07:14:17;;;;;;;3.80;0.93;;;4.60;99.90;;;;;;5005760;28;20049;-66
2023/12/22 07:16:43;;;;;;;4.65;0.73;;;4.70;99.90;;;;;;5005103;28;20077;-66
2023/12/22 07:19:09;;;;;;;5.93;1.13;;;4.80;99.90;;;;;;5005132;28;20036;-66
2023/12/22 07:21:34;;;;;;;1.80;0.60;;;4.90;99.90;;;;;;5004395;28;20030;-66
2023/12/22 07:24:00;;;;;;;6.03;1.67;;;4.90;99.90;;;;;;5005283;28;20109;-66
2023/12/22 07:26:26;;;;;;;4.65;0.50;;;4.80;99.90;;;;;;5004986;28;20038;-66
2023/12/22 07:28:53;;;;;;;4.93;0.75;;;4.80;99.90;;;;;;5005320;28;20044;-66
2023/12/22 07:31:19;;;;;;;5.15;0.80;;;4.70;99.90;;;;;;5004434;28;20044;-66
2023/12/22 07:33:45;;;;;;;7.38;1.05;;;4.70;99.90;;;;;;5005346;28;20030;-66
2023/12/22 07:36:10;;;;;;;3.70;1.25;;;4.70;99.90;;;;;;5005754;28;20478;-66
2023/12/22 07:38:39;;;;;;;0.68;0.60;;;4.70;99.90;;;;;;5005418;28;20034;-67
2023/12/22 07:41:05;;;;;;;2.90;0.77;;;4.60;99.90;;;;;;5005236;28;20030;-66
2023/12/22 07:43:30;;;;;;;3.58;0.80;;;4.60;99.90;;;;;;5005138;28;20041;-66
2023/12/22 07:45:56;;;;;;;3.72;0.73;;;4.60;99.90;;;;;;5005326;28;20798;-67
2023/12/22 07:48:23;;;;;;;5.13;0.82;;;4.60;99.90;;;;;;5005288;28;20410;-67
2023/12/22 07:50:50;;;;;;;4.32;0.50;;;4.60;99.90;;;;;;5004862;28;20048;-66
2023/12/22 07:53:15;;;;;;;4.97;1.33;;;4.70;99.90;;;;;;4997946;28;20442;-66
2023/12/22 07:55:41;;;;;;;2.60;0.75;;;4.70;99.90;;;;;;4995561;28;20037;-67
2023/12/22 07:58:07;;;;;;;1.38;0.40;;;4.70;99.90;;;;;;5002648;28;20026;-67
2023/12/22 08:00:33;;;;;;;2.72;0.80;;;4.70;99.90;;;;;;5008411;28;20814;-66
2023/12/22 08:03:00;;;;;;;3.90;0.70;;;4.70;99.90;;;;;;5008001;28;20125;-66
2023/12/22 08:05:26;;;;;;;0.68;0.55;;;4.70;99.90;;;;;;5008533;28;20040;-66
2023/12/22 08:07:52;;;;;;;2.45;0.98;;;4.70;99.90;;;;;;5008504;28;20038;-66
2023/12/22 08:10:18;;;;;;;4.90;0.98;;;4.70;99.90;;;;;;5008321;28;20037;-66
2023/12/22 08:12:44;;;;;;;1.33;0.50;;;4.70;99.90;;;;;;5006449;28;20034;-66
2023/12/22 08:15:10;;;;;;;2.38;0.93;;;4.60;99.90;;;;;;5008005;28;20084;-67
2023/12/22 08:17:37;;;;;;;1.00;0.50;;;4.60;99.90;;;;;;5008719;28;20711;-66
2023/12/22 08:20:04;;;;;;;1.30;0.30;;;4.50;99.90;;;;;;5008644;28;20053;-67
2023/12/22 08:22:30;;;;;;;3.33;0.50;;;4.50;99.90;;;;;;5007789;28;20042;-67
2023/12/22 08:24:55;;;;;;;6.53;0.73;;;4.60;99.90;;;;;;5008219;28;20053;-66
2023/12/22 08:27:21;;;;;;;2.42;0.70;;;4.50;99.90;;;;;;5008103;28;20036;-67
2023/12/22 08:29:47;;;;;;;4.20;0.70;;;4.40;99.90;;;;;;5007788;28;20038;-67
2023/12/22 08:32:13;;;;;;;3.50;0.80;;;4.30;99.90;;;;;;5007676;28;20052;-67
2023/12/22 08:34:39;;;;;;;3.53;0.60;;;4.30;99.90;;;;;;5008025;28;20104;-67
2023/12/22 08:37:04;;;;;;;4.45;1.27;;;4.40;99.90;;;;;;5008025;28;20117;-67
2023/12/22 08:39:31;;;;;;;3.25;0.77;;;4.40;99.90;;;;;;5007931;28;20068;-67
2023/12/22 08:41:57;;;;;;;4.47;0.63;;;4.50;99.90;;;;;;5007583;28;20137;-65
2023/12/22 08:44:22;;;;;;;3.20;0.63;;;4.50;99.90;;;;;;5007950;28;20660;-66
2023/12/22 08:46:48;;;;;;;1.85;0.47;;;4.50;99.90;;;;;;5007620;28;20129;-66
2023/12/22 08:49:14;;;;;;;4.90;0.73;;;4.60;99.90;;;;;;5007916;28;20066;-66
2023/12/22 08:51:41;;;;;;;2.13;0.50;;;4.60;99.90;;;;;;5004088;28;20052;-66
2023/12/22 08:54:06;;;;;;;5.50;0.80;;;4.60;99.90;;;;;;4996881;28;20757;-66
2023/12/22 08:56:32;;;;;;;3.45;0.77;;;4.60;99.90;;;;;;4996407;28;20118;-67
2023/12/22 08:59:01;;;;;;;7.90;1.00;;;4.70;99.90;;;;;;4996343;28;20565;-66
2023/12/22 09:01:27;;;;;;;4.90;1.00;;;4.90;99.90;;;;;;4991040;28;20834;-66
2023/12/22 09:03:53;;;;;;;3.88;0.85;;;5.10;99.90;;;;;;4998305;28;20037;-67
2023/12/22 09:06:20;;;;;;;5.70;0.90;;;5.20;99.90;;;;;;4998360;28;20569;-67
2023/12/22 09:08:46;;;;;;;5.70;0.80;;;5.30;99.90;;;;;;4996132;28;20040;-67
2023/12/22 09:11:14;;;;;;;5.10;0.70;;;5.50;99.90;;;;;;4988716;28;20122;-66
2023/12/22 09:13:41;;;;;;;7.00;0.88;;;5.90;99.90;;;;;;4989622;28;20041;-67
2023/12/22 09:16:08;;;;;;;1.05;0.55;;;6.50;99.90;;;;;;5008024;28;20472;-67
2023/12/22 09:18:34;;;;;;;6.72;1.02;;;7.10;99.90;;;;;;5004108;28;20080;-67
2023/12/22 09:21:00;;;;;;;3.42;0.75;;;7.90;99.90;;;;;;5002222;28;20036;-66
2023/12/22 09:23:26;;;;;;;4.15;0.88;;;8.50;99.90;;;;;;5006635;28;20057;-67
2023/12/22 09:25:52;;;;;;;4.10;1.10;;;9.20;98.40;;;;;;5001095;28;20034;-64
2023/12/22 09:28:18;;;;;;;5.03;1.42;;;9.30;97.20;;;;;;4988955;28;20030;-66
2023/12/22 09:30:44;;;;;;;9.52;1.35;;;9.80;96.30;;;;;;5006232;28;20552;-67
2023/12/22 09:33:10;;;;;;;6.30;1.42;;;10.10;95.00;;;;;;5004982;28;20049;-66
2023/12/22 09:35:36;;;;;;;8.25;1.40;;;10.40;94.40;;;;;;5002291;28;20161;-66
2023/12/22 09:38:03;;;;;;;4.35;0.60;;;10.40;93.90;;;;;;5005389;28;20675;-66
2023/12/22 09:40:29;;;;;;;7.50;1.00;;;10.50;92.70;;;;;;5004943;28;20030;-66
2023/12/22 09:42:55;;;;;;;11.60;1.40;;;10.50;92.50;;;;;;5004050;28;20092;-66
2023/12/22 09:45:21;;;;;;;8.65;1.30;;;10.80;92.50;;;;;;5002966;28;20038;-67
2023/12/22 09:47:51;;;;;;;4.95;1.45;;;11.70;90.40;;;;;;4998238;28;20022;-67
2023/12/22 09:50:18;;;;;;;4.63;1.60;;;12.20;88.10;;;;;;5004030;28;20037;-67
2023/12/22 09:52:44;;;;;;;6.93;1.92;;;11.70;88.20;;;;;;5004049;28;20041;-67
2023/12/22 09:55:11;;;;;;;9.70;1.27;;;11.40;88.10;;;;;;4999931;28;20034;-66
2023/12/22 09:57:39;;;;;;;6.13;1.48;;;10.90;89.00;;;;;;4998351;28;20041;-66
2023/12/22 10:00:08;;;;;;;9.07;1.42;;;10.60;90.30;;;;;;5004274;28;20425;-66
2023/12/22 10:02:36;;;;;;;7.85;1.77;;;10.80;90.40;;;;;;5004155;28;20603;-66
2023/12/22 10:05:02;;;;;;;3.05;1.00;;;11.50;88.00;;;;;;4994620;28;20255;-66
2023/12/22 10:07:29;;;;;;;7.32;1.23;;;11.70;85.40;;;;;;5002165;28;20427;-66
2023/12/22 10:09:56;;;;;;;5.88;1.40;;;11.90;85.90;;;;;;5001018;28;20038;-66
2023/12/22 10:12:23;;;;;;;9.65;1.60;;;12.00;85.50;;;;;;5002197;28;20458;-66
2023/12/22 10:14:49;;;;;;;7.75;1.55;;;11.10;87.30;;;;;;4997699;28;20775;-66
2023/12/22 10:17:16;;;;;;;6.38;1.15;;;11.60;86.30;;;;;;4996513;28;20129;-66
2023/12/22 10:19:42;;;;;;;7.35;1.65;;;11.80;84.10;;;;;;4995226;28;20038;-66
2023/12/22 10:22:08;;;;;;;7.32;1.25;;;11.80;84.40;;;;;;5000339;28;20038;-66
2023/12/22 10:24:38;;;;;;;5.18;1.25;;;11.70;84.50;;;;;;5000309;28;20472;-65
2023/12/22 10:27:05;;;;;;;4.30;1.38;;;11.90;83.40;;;;;;5000541;28;20038;-66
2023/12/22 10:29:32;;;;;;;6.28;1.05;;;12.50;82.20;;;;;;5001818;28;20040;-66
2023/12/22 10:32:00;;;;;;;5.47;1.00;;;13.60;79.40;;;;;;4998922;28;20037;-66
2023/12/22 10:34:26;;;;;;;4.78;1.00;;;14.00;75.50;;;;;;5003699;28;20034;-67
2023/12/22 10:36:52;;;;;;;5.45;1.08;;;13.70;74.90;;;;;;4999222;28;20030;-66
2023/12/22 10:39:18;;;;;;;5.13;0.65;;;13.90;74.10;;;;;;5003136;28;20073;-66
2023/12/22 10:41:44;;;;;;;6.70;0.85;;;14.00;74.00;;;;;;4994819;28;20025;-66
2023/12/22 10:44:10;;;;;;;4.03;1.08;;;14.10;74.70;;;;;;5003599;28;20026;-66
2023/12/22 10:46:36;;;;;;;5.47;1.55;;;13.20;76.10;;;;;;5004051;28;20540;-65
2023/12/22 10:49:04;;;;;;;4.35;0.70;;;13.00;75.30;;;;;;5002146;28;20026;-65
2023/12/22 10:51:32;;;;;;;6.72;1.42;;;12.50;75.40;;;;;;4997050;28;20490;-66
2023/12/22 10:53:59;;;;;;;4.93;1.13;;;12.30;78.10;;;;;;4998413;28;20041;-66
2023/12/22 10:56:25;;;;;;;8.27;1.52;;;12.00;79.20;;;;;;5003812;28;20044;-66
2023/12/22 10:58:54;;;;;;;7.00;1.00;;;11.70;80.20;;;;;;5001515;28;20113;-67
2023/12/22 11:01:21;;;;;;;7.82;1.30;;;11.20;82.10;;;;;;4996767;28;20061;-66
2023/12/22 11:03:51;;;;;;;8.98;1.65;;;10.90;84.20;;;;;;4997559;28;20049;-67
2023/12/22 11:06:17;;;;;;;5.80;0.88;;;10.40;86.70;;;;;;5003041;28;20093;-66
2023/12/22 11:08:44;;;;;;;4.82;0.98;;;10.00;88.50;;;;;;5002136;28;20064;-66
2023/12/22 11:11:32;;;;;;;3.08;0.90;;;9.80;90.50;;;;;;5002028;28;20177;-66
2023/12/22 11:13:59;;;;;;;7.05;0.80;;;9.40;90.60;;;;;;4998025;28;20506;-66
2023/12/22 11:16:28;;;;;;;9.02;1.10;;;8.90;90.90;;;;;;5000520;28;20030;-67
2023/12/22 11:18:55;;;;;;;6.93;1.27;;;8.50;92.30;;;;;;5000790;28;20026;-66
2023/12/22 11:21:24;;;;;;;7.78;1.17;;;8.10;93.40;;;;;;5002391;28;20060;-66
2023/12/22 11:23:53;;;;;;;5.88;1.58;;;7.80;93.90;;;;;;4998571;28;20035;-67
2023/12/22 11:26:21;;;;;;;5.72;1.50;;;7.70;95.00;;;;;;5000333;28;20041;-66
2023/12/22 11:28:49;;;;;;;6.13;0.90;;;7.70;96.20;;;;;;5003369;28;20107;-66
2023/12/22 11:31:18;;;;;;;5.55;0.90;;;7.60;96.00;;;;;;5001408;28;21325;-66
2023/12/22 11:33:48;;;;;;;9.52;1.80;;;7.40;96.30;;;;;;5002546;28;20026;-66
2023/12/22 11:36:15;;;;;;;5.70;1.10;;;7.30;96.70;;;;;;5004546;28;20402;-65
2023/12/22 11:38:42;;;;;;;6.85;0.82;;;7.10;97.10;;;;;;5007429;28;20145;-66
2023/12/22 11:41:23;;;;;;;4.63;1.23;;;6.90;98.40;;;;;;5003462;28;20033;-66
2023/12/22 11:43:50;;;;;;;7.55;1.33;;;6.80;99.40;;;;;;5001613;28;20049;-65
2023/12/22 11:46:18;;;;;;;6.82;1.40;;;6.90;99.00;;;;;;5001749;28;20775;-65
2023/12/22 11:48:52;;;;;;;10.40;1.50;;;7.00;99.90;;;;;;5007738;28;20044;-65
2023/12/22 11:51:18;;;;;;;8.48;1.23;;;7.00;99.40;;;;;;5005026;28;20749;-66
2023/12/22 11:53:44;;;;;;;10.60;1.23;;;6.80;99.50;;;;;;5007085;28;20040;-66
2023/12/22 11:56:12;;;;;;;11.25;1.25;;;6.80;99.90;;;;;;5002770;28;20057;-66
2023/12/22 11:58:52;;;;;;;4.35;1.15;;;6.80;99.60;;;;;;5008557;28;20037;-67
2023/12/22 12:01:19;;;;;;;4.68;0.95;;;6.70;99.80;;;;;;5007959;28;20030;-66
2023/12/22 12:03:53;;;;;;;6.78;1.50;;;6.60;99.90;;;;;;5006202;28;20040;-66
2023/12/22 12:06:30;;;;;;;6.28;1.05;;;6.50;99.90;;;;;;5007841;28;20037;-65
2023/12/22 12:09:04;;;;;;;6.32;1.27;;;6.60;99.90;;;;;;4988745;28;20130;-66
2023/12/22 12:11:51;;;;;;;4.25;1.45;;;6.50;99.90;;;;;;4999176;28;20026;-66
2023/12/22 12:14:22;;;;;;;9.80;1.85;;;6.60;99.90;;;;;;5007289;28;20057;-64
2023/12/22 12:16:48;;;;;;;11.05;2.28;;;6.70;99.90;;;;;;5007530;28;20034;-67
2023/12/22 12:19:15;;;;;;;4.78;1.00;;;6.70;99.90;;;;;;5007730;28;20034;-70
2023/12/22 12:21:40;;;;;;;6.35;1.25;;;6.70;99.90;;;;;;5007352;28;20014;-68
2023/12/22 12:24:06;;;;;;;6.93;0.93;;;6.90;99.90;;;;;;5007113;28;20104;-68
2023/12/22 12:26:36;;;;;;;4.78;0.77;;;7.00;99.90;;;;;;5005701;28;20030;-68
2023/12/22 12:29:02;;;;;;;8.57;1.35;;;7.00;99.90;;;;;;5007504;28;20034;-68
2023/12/22 12:31:38;;;;;;;5.95;0.90;;;7.10;99.90;;;;;;5003078;28;20045;-68
2023/12/22 12:34:05;;;;;;;9.75;1.55;;;7.10;99.90;;;;;;5004965;28;20800;-68
2023/12/22 12:36:32;;;;;;;8.90;1.45;;;7.10;99.90;;;;;;5007678;28;20026;-68
2023/12/22 12:39:08;;;;;;;5.93;1.30;;;7.20;99.90;;;;;;5005804;28;20033;-68
2023/12/22 12:41:39;;;;;;;3.20;1.27;;;7.20;99.90;;;;;;5007307;28;20036;-68
2023/12/22 12:44:06;;;;;;;9.73;1.17;;;7.10;99.90;;;;;;5006927;28;20033;-68
2023/12/22 12:46:36;;;;;;;6.75;0.82;;;7.00;99.90;;;;;;5006018;28;20109;-68
2023/12/22 12:49:04;;;;;;;8.43;1.55;;;6.80;99.90;;;;;;5003276;28;20031;-68
2023/12/22 12:51:30;;;;;;;6.72;1.38;;;6.80;99.90;;;;;;4995466;28;20041;-67
2023/12/22 12:53:56;;;;;;;9.77;1.35;;;6.70;99.90;;;;;;4998978;28;20034;-68